createdAt,value
2022-12-06T00:02:35.675Z,36.05
2022-12-06T00:05:21.876Z,32.58
2022-12-06T00:08:07.820Z,37.85
2022-12-06T00:10:53.843Z,33.17
2022-12-06T00:13:40.394Z,31.77
2022-12-06T00:16:27.536Z,28.77
2022-12-06T00:19:14.422Z,33.15
2022-12-06T00:22:00.621Z,33.33
2022-12-06T00:24:46.789Z,29.23
2022-12-06T00:27:32.834Z,31.30
2022-12-06T00:30:18.895Z,28.92
2022-12-06T00:33:05.003Z,33.10
2022-12-06T00:35:58.184Z,37.38
2022-12-06T00:38:44.688Z,30.75
2022-12-06T00:41:31.609Z,28.90
2022-12-06T00:44:17.899Z,28.02
2022-12-06T00:47:04.054Z,32.90
2022-12-06T00:49:50.040Z,29.88
2022-12-06T00:52:36.730Z,31.15
2022-12-06T00:55:22.909Z,30.35
2022-12-06T00:58:09.017Z,36.08
2022-12-06T01:00:55.247Z,31.60
2022-12-06T01:03:41.703Z,35.17
2022-12-06T01:06:29.604Z,34.28
2022-12-06T01:09:15.932Z,33.53
2022-12-06T01:12:02.107Z,35.60
2022-12-06T01:14:48.219Z,34.92
2022-12-06T01:17:35.199Z,32.25
2022-12-06T01:20:21.495Z,34.90
2022-12-06T01:23:07.556Z,35.13
2022-12-06T01:25:54.118Z,36.65
2022-12-06T01:28:40.142Z,35.22
2022-12-06T01:31:30.876Z,38.22
2022-12-06T01:34:20.230Z,39.63
2022-12-06T01:37:06.494Z,37.58
2022-12-06T01:39:52.588Z,40.70
2022-12-06T01:42:38.603Z,39.17
2022-12-06T01:45:24.931Z,35.70
2022-12-06T01:48:11.323Z,38.95
2022-12-06T01:50:58.266Z,35.40
2022-12-06T01:53:46.505Z,35.78
2022-12-06T01:56:33.014Z,38.08
2022-12-06T01:59:20.577Z,40.70
2022-12-06T02:02:08.098Z,39.65
2022-12-06T02:04:54.596Z,37.97
2022-12-06T02:07:41.282Z,38.28
2022-12-06T02:10:27.804Z,37.92
2022-12-06T02:13:14.129Z,36.85
2022-12-06T02:16:03.692Z,41.90
2022-12-06T02:18:59.982Z,39.13
2022-12-06T02:21:55.522Z,39.38
2022-12-06T02:25:00.521Z,39.60
2022-12-06T02:27:56.111Z,45.45
2022-12-06T02:30:48.163Z,45.58
2022-12-06T02:33:41.056Z,44.88
2022-12-06T02:36:30.765Z,38.45
2022-12-06T02:39:20.615Z,39.63
2022-12-06T02:42:09.369Z,46.10
2022-12-06T02:44:56.941Z,51.05
2022-12-06T02:47:44.764Z,46.67
2022-12-06T02:50:37.640Z,43.38
2022-12-06T02:53:24.931Z,45.40
2022-12-06T02:56:12.520Z,46.10
2022-12-06T02:58:58.852Z,45.75
2022-12-06T03:01:50.913Z,44.25
2022-12-06T03:05:01.438Z,41.90
2022-12-06T03:07:49.298Z,46.60
2022-12-06T03:10:37.002Z,43.53
2022-12-06T03:13:32.198Z,45.78
2022-12-06T03:16:30.233Z,40.08
2022-12-06T03:19:21.098Z,44.80
2022-12-06T03:22:09.879Z,49.65
2022-12-06T03:24:56.623Z,45.22
2022-12-06T03:27:43.270Z,43.30
2022-12-06T03:30:32.940Z,40.10
2022-12-06T03:33:22.384Z,39.20
2022-12-06T03:36:10.146Z,38.90
2022-12-06T03:38:58.773Z,41.55
2022-12-06T03:41:49.130Z,37.58
2022-12-06T03:44:36.238Z,39.72
2022-12-06T03:47:28.013Z,39.45
2022-12-06T03:50:20.114Z,39.67
2022-12-06T03:53:06.904Z,35.53
2022-12-06T03:55:53.068Z,36.83
2022-12-06T03:58:39.206Z,33.35
2022-12-06T04:01:25.311Z,35.92
2022-12-06T04:04:11.509Z,36.60
2022-12-06T04:06:57.568Z,41.58
2022-12-06T04:09:52.900Z,35.20
2022-12-06T04:12:57.961Z,39.75
2022-12-06T04:15:44.832Z,36.95
2022-12-06T04:18:31.059Z,39.22
2022-12-06T04:21:32.253Z,39.92
2022-12-06T04:24:19.666Z,40.60
2022-12-06T04:27:24.616Z,37.50
2022-12-06T04:30:29.912Z,37.20
2022-12-06T04:33:34.880Z,37.65
2022-12-06T04:36:39.743Z,37.00
2022-12-06T04:39:26.331Z,34.08
2022-12-06T04:42:32.004Z,34.92
2022-12-06T04:45:19.212Z,36.65
2022-12-06T04:48:05.430Z,36.30
2022-12-06T04:50:51.895Z,37.70
2022-12-06T04:53:38.059Z,38.53
2022-12-06T04:56:24.291Z,39.05
2022-12-06T04:59:10.593Z,34.33
2022-12-06T05:01:57.259Z,35.47
2022-12-06T05:04:43.534Z,39.67
2022-12-06T05:07:30.205Z,40.40
2022-12-06T05:10:16.688Z,39.95
2022-12-06T05:13:03.351Z,41.67
2022-12-06T05:15:58.093Z,44.97
2022-12-06T05:18:45.058Z,45.22
2022-12-06T05:21:31.943Z,47.67
2022-12-06T05:24:18.751Z,47.65
2022-12-06T05:27:05.013Z,45.22
2022-12-06T05:29:51.191Z,48.10
2022-12-06T05:32:39.121Z,53.85
2022-12-06T05:35:25.773Z,51.45
2022-12-06T05:38:12.283Z,48.80
2022-12-06T05:40:58.933Z,51.00
2022-12-06T05:43:45.863Z,54.58
2022-12-06T05:46:32.299Z,50.97
2022-12-06T05:49:18.403Z,53.35
2022-12-06T05:52:04.521Z,59.88
2022-12-06T05:54:50.695Z,54.92
2022-12-06T05:57:36.857Z,58.60
2022-12-06T06:00:23.722Z,57.63
2022-12-06T06:03:10.007Z,52.88
2022-12-06T06:05:58.723Z,67.32
2022-12-06T06:08:45.010Z,62.35
2022-12-06T06:11:31.004Z,64.00
2022-12-06T06:14:17.266Z,63.08
2022-12-06T06:17:04.214Z,60.03
2022-12-06T06:19:51.641Z,63.67
2022-12-06T06:22:39.201Z,69.88
2022-12-06T06:25:26.030Z,58.22
2022-12-06T06:28:12.755Z,63.83
2022-12-06T06:31:03.445Z,67.28
2022-12-06T06:33:49.532Z,77.88
2022-12-06T06:36:35.641Z,66.88
2022-12-06T06:39:21.883Z,66.30
2022-12-06T06:42:08.114Z,71.00
2022-12-06T06:44:55.549Z,70.00
2022-12-06T06:47:42.006Z,73.22
2022-12-06T06:50:28.077Z,69.80
2022-12-06T06:53:14.763Z,73.20
2022-12-06T06:56:00.946Z,69.05
2022-12-06T06:58:47.214Z,68.95
2022-12-06T07:01:33.580Z,66.55
2022-12-06T07:04:20.054Z,76.20
2022-12-06T07:07:06.211Z,65.43
2022-12-06T07:09:53.058Z,72.57
2022-12-06T07:12:39.446Z,65.95
2022-12-06T07:15:25.863Z,68.60
2022-12-06T07:18:12.099Z,71.78
2022-12-06T07:21:03.956Z,66.40
2022-12-06T07:23:51.155Z,70.07
2022-12-06T07:26:37.457Z,71.03
2022-12-06T07:29:23.787Z,69.20
2022-12-06T07:32:10.403Z,64.97
2022-12-06T07:34:57.283Z,70.72
2022-12-06T07:37:44.249Z,62.90
2022-12-06T07:40:56.247Z,64.10
2022-12-06T07:43:55.584Z,65.28
2022-12-06T07:46:42.450Z,64.57
2022-12-06T07:49:29.079Z,65.20
2022-12-06T07:52:15.157Z,60.13
2022-12-06T07:55:01.427Z,63.00
2022-12-06T07:57:48.069Z,63.60
2022-12-06T08:00:35.082Z,59.08
2022-12-06T08:03:22.273Z,62.92
2022-12-06T08:06:09.207Z,55.22
2022-12-06T08:08:55.327Z,57.65
2022-12-06T08:11:41.448Z,59.92
2022-12-06T08:14:27.788Z,62.05
2022-12-06T08:17:14.484Z,55.58
2022-12-06T08:20:00.946Z,58.88
2022-12-06T08:22:47.326Z,60.38
2022-12-06T08:25:33.745Z,57.20
2022-12-06T08:28:20.594Z,60.95
2022-12-06T08:31:08.551Z,56.60
2022-12-06T08:33:55.159Z,57.60
2022-12-06T08:36:41.907Z,56.13
2022-12-06T08:39:28.813Z,52.30
2022-12-06T08:42:16.807Z,50.85
2022-12-06T08:45:05.264Z,51.00
2022-12-06T08:47:51.789Z,54.05
2022-12-06T08:50:39.678Z,50.63
2022-12-06T08:53:26.145Z,49.72
2022-12-06T08:56:12.315Z,49.03
2022-12-06T08:58:58.636Z,46.97
2022-12-06T09:01:45.328Z,53.08
2022-12-06T09:04:32.173Z,45.03
2022-12-06T09:07:19.073Z,48.65
2022-12-06T09:10:06.327Z,47.47
2022-12-06T09:12:52.581Z,45.20
2022-12-06T09:15:40.545Z,46.40
2022-12-06T09:18:27.697Z,47.28
2022-12-06T09:21:16.710Z,50.75
2022-12-06T09:24:03.150Z,45.90
2022-12-06T09:26:50.355Z,60.28
2022-12-06T09:29:40.756Z,48.45
2022-12-06T09:32:27.024Z,41.88
2022-12-06T09:35:15.625Z,47.83
2022-12-06T09:38:04.499Z,44.95
2022-12-06T09:40:52.047Z,45.97
2022-12-06T09:43:42.425Z,41.35
2022-12-06T09:46:29.551Z,42.08
2022-12-06T09:49:15.962Z,45.25
2022-12-06T09:52:12.012Z,46.60
2022-12-06T09:55:04.825Z,47.88
2022-12-06T09:57:53.937Z,36.65
2022-12-06T10:00:49.166Z,45.47
2022-12-06T10:03:50.526Z,51.95
2022-12-06T10:06:43.243Z,47.50
2022-12-06T10:09:48.357Z,43.53
2022-12-06T10:12:53.444Z,46.58
2022-12-06T10:15:49.056Z,46.70
2022-12-06T10:18:47.608Z,46.88
2022-12-06T10:21:53.291Z,43.30
2022-12-06T10:24:59.901Z,47.88
2022-12-06T10:27:54.070Z,53.45
2022-12-06T10:30:45.227Z,50.05
2022-12-06T10:33:37.641Z,46.15
2022-12-06T10:36:46.275Z,38.60
2022-12-06T10:39:51.901Z,44.08
2022-12-06T10:42:43.785Z,48.85
2022-12-06T10:45:52.094Z,43.15
2022-12-06T10:48:41.364Z,44.83
2022-12-06T10:51:33.610Z,41.50
2022-12-06T10:54:26.553Z,45.30
2022-12-06T10:57:17.960Z,44.88
2022-12-06T11:00:17.193Z,45.30
2022-12-06T11:03:09.973Z,41.22
2022-12-06T11:06:08.572Z,47.25
2022-12-06T11:08:57.548Z,39.08
2022-12-06T11:11:44.852Z,45.40
2022-12-06T11:14:40.114Z,44.80
2022-12-06T11:17:29.038Z,41.92
2022-12-06T11:20:21.999Z,45.28
2022-12-06T11:23:11.513Z,42.22
2022-12-06T11:26:03.906Z,44.78
2022-12-06T11:29:00.217Z,46.75
2022-12-06T11:31:54.634Z,39.20
2022-12-06T11:34:48.598Z,43.55
2022-12-06T11:37:37.713Z,42.40
2022-12-06T11:40:37.586Z,44.72
2022-12-06T11:43:44.217Z,44.65
2022-12-06T11:46:31.378Z,47.90
2022-12-06T11:49:21.194Z,43.13
2022-12-06T11:52:10.187Z,48.28
2022-12-06T11:54:59.406Z,40.15
2022-12-06T11:58:06.646Z,43.80
2022-12-06T12:01:11.766Z,39.35
2022-12-06T12:03:57.785Z,38.67
2022-12-06T12:06:44.018Z,41.55
2022-12-06T12:09:33.755Z,41.08
2022-12-06T12:12:22.480Z,41.88
2022-12-06T12:15:16.900Z,41.95
2022-12-06T12:18:04.627Z,37.40
2022-12-06T12:20:51.621Z,39.67
2022-12-06T12:23:46.101Z,35.47
2022-12-06T12:26:36.814Z,38.88
2022-12-06T12:29:23.467Z,41.45
2022-12-06T12:32:13.175Z,37.80
2022-12-06T12:34:59.448Z,43.70
2022-12-06T12:37:46.395Z,37.88
2022-12-06T12:41:12.692Z,35.72
2022-12-06T12:44:35.796Z,38.50
2022-12-06T12:47:17.426Z,38.65
2022-12-06T12:50:05.470Z,39.83
2022-12-06T12:52:52.695Z,36.97
2022-12-06T12:55:41.633Z,42.47
2022-12-06T12:58:30.509Z,37.08
2022-12-06T13:01:20.518Z,36.03
2022-12-06T13:04:18.840Z,37.67
2022-12-06T13:07:11.709Z,36.10
2022-12-06T13:12:46.834Z,39.17
2022-12-06T13:15:37.658Z,39.58
2022-12-06T13:18:35.806Z,37.90
2022-12-06T13:21:28.984Z,37.45
2022-12-06T13:24:15.028Z,38.10
2022-12-06T13:27:06.092Z,39.85
2022-12-06T13:30:04.019Z,42.72
2022-12-06T13:32:56.073Z,38.75
2022-12-06T13:35:46.274Z,38.45
2022-12-06T13:38:34.642Z,37.90
2022-12-06T13:41:49.824Z,35.38
2022-12-06T13:44:43.290Z,35.58
2022-12-06T13:47:29.482Z,41.83
2022-12-06T13:50:18.511Z,40.67
2022-12-06T13:53:05.423Z,36.53
2022-12-06T13:56:01.906Z,37.65
2022-12-06T13:58:51.174Z,41.40
2022-12-06T14:01:45.691Z,35.60
2022-12-06T14:07:32.164Z,39.75
2022-12-06T14:10:18.555Z,36.10
2022-12-06T14:13:05.765Z,35.13
2022-12-06T14:15:53.609Z,38.72
2022-12-06T14:18:41.899Z,37.70
2022-12-06T14:21:31.226Z,37.72
2022-12-06T14:24:27.304Z,44.35
2022-12-06T14:27:39.261Z,40.95
2022-12-06T14:30:27.416Z,35.25
2022-12-06T14:33:23.812Z,38.15
2022-12-06T14:36:18.359Z,39.33
2022-12-06T14:39:09.981Z,38.33
2022-12-06T14:42:16.614Z,36.80
2022-12-06T14:45:03.721Z,38.72
2022-12-06T14:47:50.037Z,43.80
2022-12-06T14:50:45.392Z,43.30
2022-12-06T14:53:39.584Z,42.97
2022-12-06T14:56:31.444Z,39.60
2022-12-06T14:59:39.004Z,42.20
2022-12-06T15:02:30.132Z,40.95
2022-12-06T15:05:35.921Z,40.13
2022-12-06T15:08:26.161Z,41.13
2022-12-06T15:11:13.686Z,45.78
2022-12-06T15:14:12.888Z,44.70
2022-12-06T15:17:03.494Z,40.03
2022-12-06T15:19:50.864Z,49.28
2022-12-06T15:22:39.009Z,48.33
2022-12-06T15:25:25.345Z,44.33
2022-12-06T15:28:15.521Z,46.03
2022-12-06T15:33:51.326Z,50.00
2022-12-06T15:36:37.825Z,50.78
2022-12-06T15:39:24.837Z,49.85
2022-12-06T15:42:19.190Z,47.67
2022-12-06T15:45:05.810Z,47.53
2022-12-06T15:47:54.227Z,55.83
2022-12-06T15:50:40.965Z,48.28
2022-12-06T15:53:28.098Z,54.65
2022-12-06T15:56:16.162Z,47.67
2022-12-06T15:59:02.513Z,49.10
2022-12-06T16:01:50.966Z,46.47
2022-12-06T16:04:37.139Z,55.65
2022-12-06T16:07:23.840Z,53.88
2022-12-06T16:10:10.500Z,53.28
2022-12-06T16:13:15.220Z,50.08
2022-12-06T16:16:01.882Z,51.35
2022-12-06T16:18:51.273Z,55.97
2022-12-06T16:21:38.411Z,52.78
2022-12-06T16:24:24.862Z,57.00
2022-12-06T16:27:11.727Z,56.00
2022-12-06T16:29:57.951Z,55.08
2022-12-06T16:32:44.302Z,59.58
2022-12-06T16:35:32.130Z,56.35
2022-12-06T16:38:18.877Z,58.35
2022-12-06T16:41:35.382Z,59.85
2022-12-06T16:44:21.889Z,57.70
2022-12-06T16:47:08.937Z,65.07
2022-12-06T16:49:54.981Z,60.90
2022-12-06T16:52:41.384Z,61.13
2022-12-06T16:55:27.814Z,65.22
2022-12-06T16:58:16.921Z,58.45
2022-12-06T17:01:05.209Z,59.17
2022-12-06T17:03:53.098Z,57.92
2022-12-06T17:06:39.684Z,57.13
2022-12-06T17:09:25.879Z,61.67
2022-12-06T17:12:15.720Z,60.58
2022-12-06T17:15:02.763Z,61.80
2022-12-06T17:17:49.538Z,61.20
2022-12-06T17:20:36.376Z,65.22
2022-12-06T17:23:22.798Z,64.95
2022-12-06T17:26:09.125Z,64.55
2022-12-06T17:28:55.867Z,64.03
2022-12-06T17:31:42.884Z,66.65
2022-12-06T17:34:29.041Z,64.50
2022-12-06T17:37:15.353Z,64.70
2022-12-06T17:40:02.067Z,60.55
2022-12-06T17:43:09.126Z,56.78
2022-12-06T17:45:55.296Z,62.42
2022-12-06T17:48:44.570Z,63.90
2022-12-06T17:51:31.419Z,62.60
2022-12-06T17:54:17.940Z,63.17
2022-12-06T17:57:04.526Z,58.58
2022-12-06T17:59:51.623Z,66.05
2022-12-06T18:02:38.816Z,52.33
2022-12-06T18:05:25.821Z,56.90
2022-12-06T18:08:12.380Z,53.60
2022-12-06T18:11:00.118Z,60.50
2022-12-06T18:13:46.529Z,57.58
2022-12-06T18:16:39.842Z,56.35
2022-12-06T18:19:25.873Z,52.80
2022-12-06T18:22:12.276Z,59.10
2022-12-06T18:24:59.394Z,58.08
2022-12-06T18:27:46.933Z,64.20
2022-12-06T18:30:33.968Z,62.63
2022-12-06T18:33:22.607Z,52.53
2022-12-06T18:36:11.022Z,60.88
2022-12-06T18:39:01.072Z,52.85
2022-12-06T18:41:47.518Z,59.03
2022-12-06T18:44:34.215Z,57.95
2022-12-06T18:47:20.681Z,53.90
2022-12-06T18:50:10.224Z,53.45
2022-12-06T18:52:56.741Z,54.45
2022-12-06T18:55:43.054Z,51.47
2022-12-06T18:58:29.788Z,53.28
2022-12-06T19:01:16.828Z,61.35
2022-12-06T19:04:03.942Z,55.08
2022-12-06T19:06:50.320Z,58.00
2022-12-06T19:09:37.342Z,58.50
2022-12-06T19:12:23.993Z,52.65
2022-12-06T19:15:11.222Z,56.38
2022-12-06T19:17:58.247Z,52.88
2022-12-06T19:20:44.645Z,55.28
2022-12-06T19:23:31.560Z,53.53
2022-12-06T19:26:17.750Z,54.58
2022-12-06T19:29:05.586Z,54.08
2022-12-06T19:31:52.363Z,57.63
2022-12-06T19:34:39.005Z,50.60
2022-12-06T19:37:26.061Z,51.67
2022-12-06T19:40:12.894Z,54.03
2022-12-06T19:43:17.743Z,51.80
2022-12-06T19:46:14.772Z,56.53
2022-12-06T19:49:05.416Z,53.95
2022-12-06T19:51:52.121Z,50.22
2022-12-06T19:54:40.667Z,53.20
2022-12-06T19:57:27.342Z,48.42
2022-12-06T20:00:17.089Z,52.97
2022-12-06T20:03:06.766Z,52.63
2022-12-06T20:06:07.139Z,51.25
2022-12-06T20:08:54.935Z,54.70
2022-12-06T20:12:00.609Z,54.13
2022-12-06T20:14:48.768Z,49.88
2022-12-06T20:17:35.237Z,49.92
2022-12-06T20:20:21.352Z,52.40
2022-12-06T20:23:10.525Z,54.42
2022-12-06T20:25:58.444Z,49.15
2022-12-06T20:28:45.437Z,52.63
2022-12-06T20:31:32.193Z,47.80
2022-12-06T20:34:19.330Z,49.10
2022-12-06T20:37:06.659Z,48.28
2022-12-06T20:39:52.707Z,52.63
2022-12-06T20:42:38.884Z,51.42
2022-12-06T20:45:25.070Z,46.75
2022-12-06T20:48:11.842Z,48.67
2022-12-06T20:50:58.328Z,52.83
2022-12-06T20:53:47.505Z,47.92
2022-12-06T20:56:35.926Z,50.60
2022-12-06T20:59:22.454Z,47.55
2022-12-06T21:02:11.826Z,53.50
2022-12-06T21:04:58.418Z,49.78
2022-12-06T21:07:45.350Z,50.95
2022-12-06T21:10:32.124Z,48.72
2022-12-06T21:13:18.452Z,47.45
2022-12-06T21:16:09.424Z,47.13
2022-12-06T21:18:56.199Z,46.00
2022-12-06T21:21:45.414Z,46.47
2022-12-06T21:24:31.786Z,47.45
2022-12-06T21:27:17.977Z,45.17
2022-12-06T21:30:05.391Z,43.63
2022-12-06T21:32:51.923Z,46.90
2022-12-06T21:35:39.108Z,40.05
2022-12-06T21:38:25.579Z,38.90
2022-12-06T21:41:13.435Z,44.72
2022-12-06T21:44:03.084Z,50.50
2022-12-06T21:46:53.731Z,42.40
2022-12-06T21:49:40.388Z,41.00
2022-12-06T21:52:27.156Z,42.70
2022-12-06T21:55:14.107Z,41.33
2022-12-06T21:58:00.553Z,40.92
2022-12-06T22:00:46.849Z,36.30
2022-12-06T22:03:33.117Z,35.03
2022-12-06T22:06:20.110Z,40.35
2022-12-06T22:09:06.565Z,36.05
2022-12-06T22:11:53.161Z,39.05
2022-12-06T22:14:39.160Z,38.30
2022-12-06T22:17:25.480Z,34.60
2022-12-06T22:20:12.611Z,32.28
2022-12-06T22:22:59.433Z,33.85
2022-12-06T22:25:45.567Z,34.10
2022-12-06T22:28:31.933Z,33.30
2022-12-06T22:31:26.002Z,31.02
2022-12-06T22:34:12.739Z,30.45
2022-12-06T22:36:58.936Z,33.63
2022-12-06T22:39:45.120Z,35.55
2022-12-06T22:42:34.385Z,33.58
2022-12-06T22:45:20.519Z,34.55
2022-12-06T22:48:07.334Z,35.53
2022-12-06T22:50:53.591Z,33.92
2022-12-06T22:53:40.258Z,36.50
2022-12-06T22:56:27.232Z,32.30
2022-12-06T22:59:13.501Z,29.85
2022-12-06T23:01:59.970Z,29.33
2022-12-06T23:04:46.428Z,31.70
2022-12-06T23:07:32.640Z,32.03
2022-12-06T23:10:19.544Z,34.47
2022-12-06T23:13:05.742Z,31.88
2022-12-06T23:15:59.399Z,30.48
2022-12-06T23:18:45.852Z,31.55
2022-12-06T23:21:33.433Z,30.75
2022-12-06T23:24:19.885Z,32.03
2022-12-06T23:27:06.025Z,32.85
2022-12-06T23:29:52.086Z,29.05
2022-12-06T23:32:38.233Z,30.67
2022-12-06T23:35:24.858Z,27.70
2022-12-06T23:38:11.216Z,27.15
2022-12-06T23:41:02.312Z,27.23
2022-12-06T23:43:49.064Z,27.50
2022-12-06T23:46:37.273Z,26.15
2022-12-06T23:49:23.457Z,29.70
2022-12-06T23:52:10.024Z,27.58
2022-12-06T23:54:56.099Z,29.30
2022-12-06T23:57:42.144Z,28.77
